Greenville Downtown Airport Greenville US
ICAO: KGMU
IATA: GMU
Category: Medium
Scheduled Services: No

Elevation: 1048 ft
TransAlt. 18000 ft.

Airport Communications:
GREER APP/DEP:118.8
ASOS:127.075
CTAF:119.9
GND:121.25
TWR:119.9
UNICOM:122.95

KGMU Zoom In..

If you have problems with the map follow the link
https://www.worldairports.se/pages/airport.php?
ICAO=KGMU

Runways:

(A) RW 01 length 5393 ft width 100 ft
ILS 109.70 / hdg 6

(B) RW 10 length 4000 ft width 80 ft
---- / hdg 96

(C) RW 19 length 5393 ft width 100 ft
---- / hdg 186

(D) RW 28 length 4000 ft width 80 ft
---- / hdg 276

Location; KGMU
Day. 22 / Time. 16.53 Zulu
* Altimeter: 30.29
* Temperature: 10° c. 50°f.
* Wind from: 050° Speed 10 kn.
Dewpoint: 09° c.
Visibility: 3 Statute Miles.
Clouds: Broken 700 ft.
Clouds: Overcast 2500 ft.
Conditions: Light Rain.Conditions: Mist.

KGMU 221653Z 05010KT 3SM -RA BR BKN007 OVC025 10/09 A3029 RMK AO2 SLP257 P0001 T01000089


Wind From 050°
Speed 10 kn.

 
 
jpsmedia.com for Web Design worldairports.se 2019   terms of use